• Join FlightAware (Why Join?)
  • Login
  • US Flag 
05:10AM EDT


 

Airport Tracker/Info


-or-


 

Live Flight TrackerFlight Track Log ✈ UAL527 ✈ 15-Jun-2013 ✈ KDEN - KDFW

Flight Track Log - Related Links

Times and Time Zones

All times are in EDT time to prevent confusion due to time zone crossing. See the UAL527 flight status page for this flight to view local times or setup timezone preferences in your user account.

Time Position Orientation Groundspeed Altitude Reporting Facility
EDT Latitude Longitude Course Direction KTS MPH feet Rate Location/Type
03:14PM 39.8411 -104.7514 180° South 175 201 6,600  Level Denver Center
03:15PM 39.8200 -104.8378 252° West 238 274 8,100 1,920 Climbing Denver Center
03:16PM 39.7625 -104.8792 209° Southwest 275 316 10,600 2,040 Climbing Denver Center
03:17PM 39.6988 -104.3607 205° Southwest  Level FlightAware Approximate
03:17PM 39.6886 -104.8217 149° Southeast 293 337 12,400  Level Denver Center
03:18PM 39.5976 -104.4185 210° Southwest  Level FlightAware Approximate
03:18PM 39.6094 -104.7544 147° Southeast 344 396 15,100  Level Denver Center
03:19PM 39.5010 -104.4882 207° Southwest  Level FlightAware Approximate
03:19PM 39.5247 -104.6931 151° Southeast 350 403 18,600  Level Denver Center
03:20PM 39.3927 -104.5000 180° South  Level FlightAware Approximate
03:20PM 39.4292 -104.6367 155° Southeast 348 400 21,800  Level Denver Center
03:21PM 39.3283 -104.5744 154° Southeast 379 436 24,200 2,220 Climbing Denver Center
03:23PM 39.2303 -104.5169 156° South 389 448 26,400 1,500 Climbing Denver Center
03:24PM 39.1272 -104.4586 156° South 404 465 27,300 840 Climbing Denver Center
03:25PM 39.0144 -104.4247 167° South 413 475 28,200 780 Climbing Denver Center
03:26PM 38.8933 -104.3925 168° South 434 499 28,900 1,020 Climbing Denver Center
03:27PM 38.7700 -104.3578 168° South 451 519 30,400 1,380 Climbing Denver Center
03:28PM 38.6531 -104.3000 159° South 454 522 31,800 1,380 Climbing Denver Center
03:29PM 38.5278 -104.1839 144° Southeast 463 533 33,300 1,260 Climbing Denver Center
03:30PM 38.4308 -104.0797 140° Southeast 464 534 34,500 780 Climbing Denver Center
03:31PM 38.3367 -103.9769 139° Southeast 463 533 35,000 240 Climbing Denver Center
03:32PM 38.2272 -103.8608 140° Southeast 458 527 35,000  Level Denver Center
03:33PM 38.1322 -103.7606 140° Southeast 462 532 35,000  Level Denver Center
03:34PM 38.0231 -103.6431 140° Southeast 459 528 35,000  Level Denver Center
03:35PM 37.9289 -103.5433 140° Southeast 458 527 35,000  Level Denver Center
03:36PM 37.8339 -103.4431 140° Southeast 460 529 35,000  Level Denver Center
03:37PM 37.7225 -103.3267 140° Southeast 462 532 35,000  Level Denver Center
03:38PM 37.6119 -103.2097 140° Southeast 462 532 35,000  Level Denver Center
03:39PM 37.5003 -103.0944 141° Southeast 462 532 35,000  Level Denver Center
03:40PM 37.4211 -103.0128 141° Southeast 460 529 35,000  Level Denver Center
03:41PM 37.3581 -102.9472 140° Southeast 460 529 35,000  Level Albuquerque Center
03:42PM 37.2636 -102.8483 140° Southeast 461 531 35,000  Level Albuquerque Center
03:43PM 37.1522 -102.7344 141° Southeast 461 531 35,000  Level Albuquerque Center
03:44PM 37.0572 -102.6375 141° Southeast 460 529 35,000  Level Albuquerque Center
03:45PM 36.9472 -102.5242 141° Southeast 458 527 35,000  Level Albuquerque Center
03:46PM 36.8642 -102.4411 141° Southeast 459 528 35,000  Level Albuquerque Center
03:47PM 36.7467 -102.3200 140° Southeast 458 527 35,000  Level Albuquerque Center
03:48PM 36.6481 -102.2211 141° Southeast 455 524 35,000  Level Albuquerque Center
03:49PM 36.5506 -102.1231 141° Southeast 452 520 35,000  Level Albuquerque Center
03:50PM 36.4531 -102.0244 141° Southeast 451 519 35,000 -60 Level Albuquerque Center
03:51PM 36.3558 -101.9272 141° Southeast 448 516 34,900  Descending Albuquerque Center
03:52PM 36.2578 -101.8294 141° Southeast 450 518 35,000  Climbing Albuquerque Center
03:53PM 36.1600 -101.7331 141° Southeast 450 518 35,000  Level Albuquerque Center
03:54PM 36.0611 -101.6344 141° Southeast 453 521 35,000  Level Albuquerque Center
03:55PM 35.9431 -101.5147 141° Southeast 455 524 35,000  Level Albuquerque Center
03:56PM 35.8442 -101.4186 142° Southeast 453 521 35,000  Level Albuquerque Center
03:57PM 35.7586 -101.3031 132° Southeast 454 522 35,000  Level Albuquerque Center
03:58PM 35.6797 -101.1767 128° Southeast 461 531 35,000  Level Albuquerque Center
03:59PM 35.5997 -101.0519 128° Southeast 462 532 35,000  Level Albuquerque Center
04:00PM 35.5206 -100.9258 128° Southeast 463 533 35,000  Level Albuquerque Center
04:01PM 35.4411 -100.8014 128° Southeast 462 532 35,000  Level Albuquerque Center
04:02PM 35.3622 -100.6767 128° Southeast 462 532 35,000  Level Albuquerque Center
04:03PM 35.2739 -100.5408 129° Southeast 465 535 35,000  Level Albuquerque Center
04:04PM 35.1942 -100.4161 128° Southeast 467 537 35,000  Level Albuquerque Center
04:05PM 35.1142 -100.2933 129° Southeast 463 533 35,000  Level Albuquerque Center
04:06PM 35.0350 -100.1703 128° Southeast 462 532 35,000  Level Albuquerque Center
04:07PM 34.9544 -100.0469 129° Southeast 464 534 35,000  Level Albuquerque Center
04:08PM 34.8592 -99.9008 128° Southeast 461 531 35,000 -300 Level Albuquerque Center
04:09PM 34.7797 -99.7797 129° Southeast 459 528 34,400 -840 Descending Albuquerque Center
04:10PM 34.6978 -99.6589 129° Southeast 461 531 33,400 -960 Descending Fort Worth Center
04:11PM 34.6206 -99.5356 127° Southeast 461 531 32,500 -960 Descending Fort Worth Center
04:12PM 34.5475 -99.4128 126° Southeast 466 536 31,500 -1,020 Descending Fort Worth Center
04:13PM 34.4700 -99.2875 127° Southeast 461 531 30,500 -900 Descending Fort Worth Center
04:14PM 34.3769 -99.2353 155° Southeast 441 507 29,700 -780 Descending Fort Worth Center
04:15PM 34.2436 -99.2300 178° South 427 491 29,000 -360 Descending Fort Worth Center
04:16PM 34.1253 -99.1872 163° South 432 497 29,000 -300 Level Fort Worth Center
04:17PM 34.0519 -99.0556 124° Southeast 432 497 28,400 -1,020 Descending Fort Worth Center
04:18PM 34.0081 -98.8917 108° East 433 498 27,000 -1,500 Descending Fort Worth Center
04:19PM 33.9761 -98.7533 106° East 444 511 25,500 -1,320 Descending Fort Worth Center
04:20PM 33.9381 -98.6025 107° East 456 525 24,400 -1,200 Descending Fort Worth Center
04:21PM 33.8978 -98.4544 108° East 468 539 23,100 -1,440 Descending Fort Worth Center
04:22PM 33.8614 -98.2939 105° East 455 524 21,600 -1,500 Descending Fort Worth Center
04:23PM 33.8267 -98.1586 107° East 436 502 20,100 -1,800 Descending Fort Worth Center
04:24PM 33.7942 -98.0283 107° East 414 476 18,100 -1,980 Descending Fort Worth Center
04:25PM 33.7633 -97.9156 108° East 399 459 16,200 -2,100 Descending Fort Worth Center
04:26PM 33.7344 -97.7931 106° East 393 452 14,000 -2,040 Descending Fort Worth Center
04:27PM 33.6700 -97.6906 127° Southeast 352 405 12,200 -1,680 Descending Fort Worth Center
04:28PM 33.6014 -97.6181 139° Southeast 345 397 10,700 -1,140 Descending Fort Worth Center
04:29PM 33.5200 -97.5803 159° South 319 367 10,000 -1,020 Descending Fort Worth Center
04:30PM 33.4575 -97.5628 167° South 284 327 8,700 -1,380 Descending Fort Worth Center
04:31PM 33.3781 -97.5378 165° South 272 313 7,300 -1,320 Descending Fort Worth Center
04:32PM 33.3167 -97.5167 164° South 263 303 6,400 -1,020 Descending Dallas / Fort Worth TRACON
04:33PM 33.2667 -97.4500 132° Southeast 264 304 5,500 -720 Descending Dallas / Fort Worth TRACON
04:34PM 33.2000 -97.3833 140° Southeast 265 305 5,000 -300 Descending Dallas / Fort Worth TRACON
04:35PM 33.1500 -97.3333 140° Southeast 250 288 5,000 -540 Level Dallas / Fort Worth TRACON
04:36PM 33.1167 -97.2833 129° Southeast 233 268 4,000 -840 Descending Dallas / Fort Worth TRACON
04:37PM 33.0667 -97.2333 140° Southeast 226 260 3,400 -600 Descending Dallas / Fort Worth TRACON